Oxnard Airport Oxnard US
ICAO: KOXR
IATA: OXR
Category: Medium
Scheduled Services: No

Elevation: 45 ft
TransAlt. 18000 ft.

Airport Communications:
PT MUGU APP/DEP:124.7
ATIS:118.05
CTAF:134.95
GND:121.9
TWR:134.95

KOXR Zoom In..

Runways:

(A) RW 07 length 5953 ft width 100 ft
---- / hdg 76

(B) RW 25 length 5953 ft width 100 ft
ILS 108.70 / hdg 256

Location; KOXR
Day. 20 / Time. 02.51 Zulu
* Altimeter: 29.91
* Temperature: 21° c. 69.8°f.
* Wind from: 180° Speed 05 kn.
Dewpoint: 18° c.
Visibility: 10 Statute Miles.
Clouds: Scattered 900 ft.

KOXR 200251Z 18005KT 10SM SCT009 21/18 A2991 RMK AO2 SLP129 T02110178 53004


Wind From 180°
Speed 05 kn.

 
 
jpsmedia.com for Web Design worldairports.se 2018   terms of use